createdAt,value
2023-05-01T00:01:59.584Z,8.57
2023-05-01T00:04:26.524Z,8.25
2023-05-01T00:06:53.484Z,9.00
2023-05-01T00:09:20.234Z,8.13
2023-05-01T00:11:46.969Z,8.10
2023-05-01T00:14:13.602Z,7.85
2023-05-01T00:16:40.351Z,7.85
2023-05-01T00:19:07.028Z,8.55
2023-05-01T00:21:33.717Z,7.97
2023-05-01T00:24:00.357Z,8.32
2023-05-01T00:26:30.576Z,8.40
2023-05-01T00:28:58.387Z,9.30
2023-05-01T00:31:26.106Z,9.20
2023-05-01T00:33:53.316Z,9.82
2023-05-01T00:36:20.426Z,8.95
2023-05-01T00:38:47.152Z,9.15
2023-05-01T00:41:13.855Z,9.02
2023-05-01T00:43:40.493Z,9.95
2023-05-01T00:46:08.063Z,9.70
2023-05-01T00:48:35.249Z,8.85
2023-05-01T00:51:05.057Z,8.77
2023-05-01T00:53:33.827Z,7.70
2023-05-01T00:56:00.999Z,8.40
2023-05-01T00:58:27.902Z,7.03
2023-05-01T01:00:55.348Z,7.53
2023-05-01T01:03:22.043Z,7.53
2023-05-01T01:06:19.217Z,7.05
2023-05-01T01:09:27.557Z,7.15
2023-05-01T01:12:06.823Z,8.35
2023-05-01T01:14:45.271Z,16.15
2023-05-01T01:17:45.104Z,18.17
2023-05-01T01:20:32.716Z,21.98
2023-05-01T01:23:21.257Z,22.20
2023-05-01T01:26:03.618Z,19.38
2023-05-01T01:28:48.998Z,16.25
2023-05-01T01:31:18.786Z,14.73
2023-05-01T01:33:55.455Z,14.27
2023-05-01T01:36:40.721Z,14.20
2023-05-01T01:39:30.598Z,17.38
2023-05-01T01:41:59.362Z,14.88
2023-05-01T01:44:34.830Z,13.60
2023-05-01T01:47:12.875Z,13.85
2023-05-01T01:49:44.879Z,14.20
2023-05-01T01:52:14.229Z,11.68
2023-05-01T01:54:49.942Z,13.13
2023-05-01T01:57:17.929Z,14.02
2023-05-01T01:59:45.278Z,16.38
2023-05-01T02:02:12.690Z,15.68
2023-05-01T02:04:39.962Z,15.00
2023-05-01T02:07:07.333Z,13.82
2023-05-01T02:09:34.880Z,15.63
2023-05-01T02:12:02.966Z,13.38
2023-05-01T02:14:30.313Z,13.02
2023-05-01T02:16:58.895Z,15.27
2023-05-01T02:19:26.363Z,19.63
2023-05-01T02:21:55.729Z,28.02
2023-05-01T02:24:24.066Z,15.63
2023-05-01T02:26:55.439Z,27.35
2023-05-01T02:29:22.130Z,28.40
2023-05-01T02:31:48.900Z,24.90
2023-05-01T02:34:15.740Z,23.50
2023-05-01T02:36:42.706Z,22.10
2023-05-01T02:39:09.373Z,7.07
2023-05-01T02:41:37.540Z,4.35
2023-05-01T02:44:05.274Z,3.97
2023-05-01T02:46:34.526Z,6.88
2023-05-01T02:49:03.132Z,2.88
2023-05-01T02:51:31.650Z,1.98
2023-05-01T02:53:59.841Z,2.58
2023-05-01T02:56:28.156Z,3.28
2023-05-01T02:58:55.251Z,2.80
2023-05-01T03:01:22.064Z,2.38
2023-05-01T03:03:48.856Z,2.38
2023-05-01T03:06:15.698Z,1.88
2023-05-01T03:08:42.969Z,2.22
2023-05-01T03:11:09.628Z,2.42
2023-05-01T03:13:36.298Z,2.53
2023-05-01T03:16:04.570Z,2.60
2023-05-01T03:18:31.409Z,3.28
2023-05-01T03:20:58.170Z,8.20
2023-05-01T03:23:25.217Z,7.50
2023-05-01T03:25:51.933Z,6.53
2023-05-01T03:28:18.653Z,8.15
2023-05-01T03:30:45.537Z,8.43
2023-05-01T03:33:12.329Z,10.25
2023-05-01T03:35:39.183Z,10.63
2023-05-01T03:38:06.079Z,10.73
2023-05-01T03:40:32.855Z,9.82
2023-05-01T03:42:59.519Z,10.90
2023-05-01T03:45:26.171Z,10.90
2023-05-01T03:47:53.167Z,14.45
2023-05-01T03:50:19.809Z,15.05
2023-05-01T03:52:46.626Z,12.15
2023-05-01T03:55:13.334Z,12.43
2023-05-01T03:57:40.038Z,12.70
2023-05-01T04:00:07.399Z,12.57
2023-05-01T04:02:34.216Z,12.25
2023-05-01T04:05:00.931Z,13.35
2023-05-01T04:07:27.643Z,12.25
2023-05-01T04:09:54.517Z,14.38
2023-05-01T04:12:21.483Z,15.13
2023-05-01T04:14:48.138Z,16.00
2023-05-01T04:17:14.873Z,15.40
2023-05-01T04:19:41.668Z,15.75
2023-05-01T04:22:08.299Z,14.85
2023-05-01T04:24:34.978Z,16.85
2023-05-01T04:27:01.621Z,15.40
2023-05-01T04:29:28.297Z,14.40
2023-05-01T04:31:54.970Z,15.50
2023-05-01T04:34:21.659Z,15.02
2023-05-01T04:36:48.385Z,15.38
2023-05-01T04:39:15.965Z,14.07
2023-05-01T04:41:42.605Z,15.88
2023-05-01T04:44:09.267Z,15.55
2023-05-01T04:46:35.989Z,15.23
2023-05-01T04:49:02.749Z,15.50
2023-05-01T04:51:29.669Z,15.45
2023-05-01T04:53:56.346Z,16.85
2023-05-01T04:56:23.181Z,15.95
2023-05-01T04:58:49.906Z,16.42
2023-05-01T05:01:16.666Z,17.85
2023-05-01T05:03:43.539Z,16.27
2023-05-01T05:06:11.419Z,16.30
2023-05-01T05:08:38.321Z,15.80
2023-05-01T05:11:04.989Z,15.23
2023-05-01T05:13:31.681Z,15.40
2023-05-01T05:15:58.370Z,15.20
2023-05-01T05:18:25.173Z,15.80
2023-05-01T05:20:51.923Z,14.27
2023-05-01T05:23:18.617Z,14.93
2023-05-01T05:25:45.460Z,14.27
2023-05-01T05:28:12.193Z,15.00
2023-05-01T05:30:38.896Z,13.80
2023-05-01T05:33:08.830Z,13.40
2023-05-01T05:35:35.569Z,13.85
2023-05-01T05:38:02.237Z,13.45
2023-05-01T05:40:28.881Z,14.55
2023-05-01T05:42:56.716Z,13.93
2023-05-01T05:45:23.869Z,16.05
2023-05-01T05:47:50.731Z,12.15
2023-05-01T05:50:17.542Z,11.85
2023-05-01T05:52:44.204Z,12.35
2023-05-01T05:55:10.980Z,12.43
2023-05-01T05:57:37.911Z,12.45
2023-05-01T06:00:05.720Z,12.82
2023-05-01T06:02:33.563Z,14.52
2023-05-01T06:05:00.902Z,16.63
2023-05-01T06:07:28.887Z,17.05
2023-05-01T06:09:55.940Z,16.73
2023-05-01T06:12:23.153Z,17.60
2023-05-01T06:14:50.684Z,16.95
2023-05-01T06:17:17.363Z,15.23
2023-05-01T06:19:44.061Z,14.30
2023-05-01T06:22:10.736Z,13.63
2023-05-01T06:24:37.595Z,12.80
2023-05-01T06:27:04.317Z,13.68
2023-05-01T06:29:31.135Z,14.60
2023-05-01T06:31:57.931Z,13.80
2023-05-01T06:34:24.701Z,13.65
2023-05-01T06:36:51.452Z,11.27
2023-05-01T06:39:18.120Z,11.15
2023-05-01T06:41:48.257Z,8.45
2023-05-01T06:44:15.538Z,6.82
2023-05-01T06:46:42.411Z,5.63
2023-05-01T06:49:09.201Z,4.13
2023-05-01T06:51:36.006Z,4.32
2023-05-01T06:54:02.800Z,4.43
2023-05-01T06:56:29.509Z,5.25
2023-05-01T06:58:56.318Z,3.85
2023-05-01T07:01:23.038Z,2.95
2023-05-01T07:03:49.793Z,3.67
2023-05-01T07:06:16.454Z,2.72
2023-05-01T07:08:43.225Z,2.95
2023-05-01T07:11:09.964Z,2.83
2023-05-01T07:13:36.679Z,3.88
2023-05-01T07:16:03.461Z,3.15
2023-05-01T07:18:30.285Z,3.47
2023-05-01T07:20:56.929Z,4.20
2023-05-01T07:23:25.449Z,5.30
2023-05-01T07:25:53.095Z,4.75
2023-05-01T07:28:20.560Z,3.20
2023-05-01T07:30:47.441Z,2.53
2023-05-01T07:33:14.237Z,2.22
2023-05-01T07:35:41.483Z,2.53
2023-05-01T07:38:08.823Z,1.65
2023-05-01T07:40:36.237Z,2.78
2023-05-01T07:43:02.989Z,1.90
2023-05-01T07:45:29.689Z,2.40
2023-05-01T07:47:57.206Z,2.25
2023-05-01T07:50:25.089Z,2.20
2023-05-01T07:52:51.858Z,1.65
2023-05-01T07:55:19.317Z,1.88
2023-05-01T07:57:47.126Z,2.40
2023-05-01T08:00:14.468Z,1.67
2023-05-01T08:02:41.623Z,1.90
2023-05-01T08:05:08.561Z,1.45
2023-05-01T08:07:35.441Z,2.92
2023-05-01T08:10:02.532Z,1.58
2023-05-01T08:12:29.911Z,1.92
2023-05-01T08:14:56.705Z,2.00
2023-05-01T08:17:23.389Z,1.42
2023-05-01T08:19:50.401Z,1.45
2023-05-01T08:22:17.107Z,1.73
2023-05-01T08:24:44.101Z,1.80
2023-05-01T08:27:11.010Z,3.15
2023-05-01T08:29:37.709Z,2.17
2023-05-01T08:32:04.402Z,2.72
2023-05-01T08:34:31.096Z,3.33
2023-05-01T08:36:59.526Z,2.88
2023-05-01T08:39:26.201Z,1.95
2023-05-01T08:41:53.145Z,1.45
2023-05-01T08:44:26.354Z,1.40
2023-05-01T08:47:18.211Z,1.70
2023-05-01T08:49:46.883Z,1.75
2023-05-01T08:52:14.920Z,1.80
2023-05-01T08:54:45.273Z,1.40
2023-05-01T08:57:12.854Z,1.85
2023-05-01T08:59:40.670Z,1.80
2023-05-01T09:02:09.336Z,2.10
2023-05-01T09:07:05.554Z,1.83
2023-05-01T09:09:33.071Z,1.90
2023-05-01T09:12:26.002Z,1.67
2023-05-01T09:14:54.340Z,3.28
2023-05-01T09:17:22.200Z,3.95
2023-05-01T09:19:49.823Z,1.85
2023-05-01T09:22:18.742Z,2.22
2023-05-01T09:27:13.969Z,2.17
2023-05-01T09:29:40.774Z,1.92
2023-05-01T09:32:13.329Z,2.55
2023-05-01T09:34:40.104Z,2.72
2023-05-01T09:37:06.892Z,1.80
2023-05-01T09:39:33.640Z,1.92
2023-05-01T09:42:00.391Z,2.40
2023-05-01T09:44:27.165Z,1.92
2023-05-01T09:46:54.757Z,4.43
2023-05-01T09:49:44.643Z,1.90
2023-05-01T09:52:12.002Z,1.98
2023-05-01T09:54:38.650Z,2.30
2023-05-01T09:57:05.599Z,1.90
2023-05-01T09:59:34.445Z,2.00
2023-05-01T10:04:35.001Z,1.98
2023-05-01T10:07:14.404Z,1.77
2023-05-01T10:09:42.358Z,1.80
2023-05-01T10:12:09.161Z,2.03
2023-05-01T10:14:56.080Z,2.00
2023-05-01T10:17:22.929Z,2.13
2023-05-01T10:19:51.523Z,2.42
2023-05-01T10:22:18.397Z,2.10
2023-05-01T10:24:47.871Z,2.05
2023-05-01T10:27:14.653Z,1.77
2023-05-01T10:29:44.732Z,2.08
2023-05-01T10:32:11.625Z,1.90
2023-05-01T10:35:06.071Z,2.15
2023-05-01T10:38:09.610Z,1.90
2023-05-01T10:40:39.088Z,2.10
2023-05-01T10:43:31.871Z,2.00
2023-05-01T10:46:07.751Z,1.90
2023-05-01T10:48:40.868Z,1.88
2023-05-01T10:51:18.140Z,7.13
2023-05-01T10:53:46.181Z,1.80
2023-05-01T10:56:33.936Z,1.88
2023-05-01T10:59:04.782Z,1.90
2023-05-01T11:01:39.865Z,1.80
2023-05-01T11:04:22.077Z,2.13
2023-05-01T11:07:15.590Z,1.80
2023-05-01T11:12:45.084Z,1.85
2023-05-01T11:15:12.743Z,2.20
2023-05-01T11:17:42.998Z,1.88
2023-05-01T11:20:11.464Z,1.63
2023-05-01T11:22:40.112Z,1.63
2023-05-01T11:25:23.617Z,1.80
2023-05-01T11:27:53.066Z,1.77
2023-05-01T11:30:20.018Z,1.92
2023-05-01T11:32:48.345Z,1.80
2023-05-01T11:35:20.968Z,1.90
2023-05-01T11:37:48.262Z,1.75
2023-05-01T11:40:21.910Z,1.63
2023-05-01T11:42:49.542Z,2.03
2023-05-01T11:45:16.643Z,2.00
2023-05-01T11:47:43.390Z,2.15
2023-05-01T11:50:10.629Z,1.75
2023-05-01T11:52:52.874Z,1.92
2023-05-01T11:55:31.333Z,1.58
2023-05-01T11:57:58.048Z,1.60
2023-05-01T12:00:33.688Z,1.73
2023-05-01T12:03:07.098Z,1.70
2023-05-01T12:05:37.112Z,2.13
2023-05-01T12:08:14.128Z,2.03
2023-05-01T12:10:43.452Z,1.83
2023-05-01T12:13:12.218Z,1.73
2023-05-01T12:15:46.203Z,1.60
2023-05-01T12:18:14.383Z,2.22
2023-05-01T12:20:43.276Z,1.60
2023-05-01T12:23:12.100Z,1.50
2023-05-01T12:30:47.851Z,1.40
2023-05-01T12:33:18.197Z,1.70
2023-05-01T12:35:47.042Z,1.50
2023-05-01T12:38:24.124Z,1.40
2023-05-01T12:40:57.783Z,1.92
2023-05-01T12:43:31.498Z,1.80
2023-05-01T12:45:58.491Z,1.38
2023-05-01T12:48:25.363Z,1.80
2023-05-01T12:50:54.952Z,1.70
2023-05-01T12:53:26.200Z,1.52
2023-05-01T12:55:55.206Z,1.52
2023-05-01T13:00:53.143Z,1.85
2023-05-01T13:03:27.565Z,1.42
2023-05-01T13:05:59.244Z,1.70
2023-05-01T13:08:33.755Z,1.50
2023-05-01T13:11:03.994Z,1.70
2023-05-01T13:13:33.550Z,1.80
2023-05-01T13:16:25.080Z,1.80
2023-05-01T13:18:52.935Z,2.03
2023-05-01T13:21:21.542Z,1.63
2023-05-01T13:23:57.352Z,1.98
2023-05-01T13:26:35.873Z,3.17
2023-05-01T13:29:05.855Z,2.35
2023-05-01T13:31:32.765Z,1.67
2023-05-01T13:33:59.974Z,2.10
2023-05-01T13:36:33.086Z,1.55
2023-05-01T13:38:59.834Z,1.30
2023-05-01T13:41:27.703Z,1.83
2023-05-01T13:43:57.131Z,2.20
2023-05-01T13:46:26.549Z,3.15
2023-05-01T13:48:53.581Z,2.70
2023-05-01T13:51:22.400Z,1.83
2023-05-01T13:53:49.244Z,1.75
2023-05-01T13:56:16.323Z,1.70
2023-05-01T13:58:42.967Z,1.80
2023-05-01T14:01:18.978Z,1.95
2023-05-01T14:03:46.010Z,1.80
2023-05-01T14:06:15.027Z,2.30
2023-05-01T14:08:43.430Z,2.42
2023-05-01T14:11:11.608Z,1.83
2023-05-01T14:13:45.080Z,2.90
2023-05-01T14:16:21.011Z,2.55
2023-05-01T14:18:49.162Z,1.98
2023-05-01T14:21:17.306Z,2.05
2023-05-01T14:23:44.345Z,3.50
2023-05-01T14:26:12.203Z,2.55
2023-05-01T14:28:45.252Z,2.33
2023-05-01T14:31:18.177Z,3.05
2023-05-01T14:33:44.970Z,2.22
2023-05-01T14:36:12.647Z,3.05
2023-05-01T14:38:40.458Z,2.63
2023-05-01T14:41:10.060Z,2.17
2023-05-01T14:43:41.313Z,2.70
2023-05-01T14:46:08.196Z,4.43
2023-05-01T14:48:37.091Z,4.30
2023-05-01T14:51:10.655Z,3.25
2023-05-01T14:53:39.623Z,2.40
2023-05-01T14:58:33.082Z,3.05
2023-05-01T15:01:00.353Z,2.85
2023-05-01T15:03:27.238Z,2.70
2023-05-01T15:05:54.425Z,2.35
2023-05-01T15:08:21.369Z,2.97
2023-05-01T15:10:48.159Z,2.40
2023-05-01T15:13:14.780Z,2.97
2023-05-01T15:15:41.650Z,2.80
2023-05-01T15:18:08.346Z,3.22
2023-05-01T15:20:35.053Z,3.00
2023-05-01T15:23:01.708Z,3.22
2023-05-01T15:25:28.416Z,3.70
2023-05-01T15:27:55.733Z,3.00
2023-05-01T15:30:22.572Z,2.40
2023-05-01T15:32:49.371Z,2.63
2023-05-01T15:35:17.419Z,2.67
2023-05-01T15:37:44.067Z,2.85
2023-05-01T15:40:10.845Z,5.68
2023-05-01T15:42:37.536Z,3.58
2023-05-01T15:45:04.604Z,2.40
2023-05-01T15:47:31.344Z,3.08
2023-05-01T15:49:58.207Z,2.88
2023-05-01T15:52:25.713Z,2.60
2023-05-01T15:54:52.409Z,2.63
2023-05-01T15:57:19.053Z,3.22
2023-05-01T15:59:45.729Z,2.45
2023-05-01T16:02:12.506Z,2.95
2023-05-01T16:04:39.269Z,2.70
2023-05-01T16:07:06.283Z,2.92
2023-05-01T16:09:32.962Z,4.55
2023-05-01T16:12:01.788Z,3.60
2023-05-01T16:14:28.647Z,4.30
2023-05-01T16:16:55.557Z,5.40
2023-05-01T16:19:22.286Z,6.43
2023-05-01T16:21:49.021Z,6.13
2023-05-01T16:24:15.789Z,4.70
2023-05-01T16:26:42.625Z,6.35
2023-05-01T16:29:11.073Z,8.68
2023-05-01T16:31:47.558Z,5.78
2023-05-01T16:34:15.770Z,4.03
2023-05-01T16:36:42.805Z,4.35
2023-05-01T16:39:12.033Z,3.60
2023-05-01T16:41:44.727Z,3.10
2023-05-01T16:44:12.659Z,3.08
2023-05-01T16:46:54.160Z,3.75
2023-05-01T16:49:21.816Z,3.88
2023-05-01T16:51:48.713Z,4.40
2023-05-01T16:54:16.164Z,3.70
2023-05-01T16:56:42.886Z,3.28
2023-05-01T16:59:09.562Z,3.47
2023-05-01T17:01:36.291Z,3.92
2023-05-01T17:04:03.141Z,3.72
2023-05-01T17:06:29.883Z,4.45
2023-05-01T17:08:56.679Z,3.90
2023-05-01T17:11:24.695Z,3.95
2023-05-01T17:13:52.551Z,5.57
2023-05-01T17:16:22.207Z,4.57
2023-05-01T17:18:48.922Z,14.75
2023-05-01T17:21:15.953Z,9.20
2023-05-01T17:23:42.657Z,3.30
2023-05-01T17:26:09.313Z,3.38
2023-05-01T17:28:35.981Z,9.80
2023-05-01T17:31:02.659Z,3.67
2023-05-01T17:33:31.578Z,3.38
2023-05-01T17:36:00.633Z,4.55
2023-05-01T17:40:53.905Z,3.47
2023-05-01T17:43:20.870Z,4.45
2023-05-01T17:45:50.199Z,4.55
2023-05-01T17:48:19.671Z,3.67
2023-05-01T17:50:46.545Z,3.78
2023-05-01T17:53:13.175Z,4.50
2023-05-01T17:55:40.194Z,4.00
2023-05-01T17:58:07.208Z,5.22
2023-05-01T18:00:35.194Z,5.38
2023-05-01T18:03:02.019Z,6.32
2023-05-01T18:05:28.831Z,7.40
2023-05-01T18:07:56.062Z,11.25
2023-05-01T18:10:22.834Z,6.22
2023-05-01T18:12:49.956Z,7.22
2023-05-01T18:15:22.083Z,7.30
2023-05-01T18:17:49.946Z,6.25
2023-05-01T18:20:16.805Z,10.70
2023-05-01T18:22:43.431Z,10.02
2023-05-01T18:25:10.212Z,12.20
2023-05-01T18:27:41.745Z,11.43
2023-05-01T18:30:09.485Z,6.68
2023-05-01T18:32:47.554Z,8.80
2023-05-01T18:35:15.933Z,6.07
2023-05-01T18:37:44.076Z,6.30
2023-05-01T18:40:11.671Z,5.55
2023-05-01T18:42:40.694Z,7.07
2023-05-01T18:45:08.077Z,9.02
2023-05-01T18:47:34.742Z,6.70
2023-05-01T18:50:01.846Z,9.55
2023-05-01T18:52:29.478Z,5.70
2023-05-01T18:54:56.104Z,5.93
2023-05-01T18:57:23.103Z,4.15
2023-05-01T18:59:49.740Z,5.85
2023-05-01T19:02:16.473Z,6.43
2023-05-01T19:04:56.861Z,6.60
2023-05-01T19:07:25.889Z,5.75
2023-05-01T19:09:52.563Z,3.33
2023-05-01T19:12:19.245Z,5.63
2023-05-01T19:14:46.015Z,7.68
2023-05-01T19:17:12.714Z,5.50
2023-05-01T19:19:39.412Z,6.63
2023-05-01T19:22:07.269Z,6.57
2023-05-01T19:24:33.958Z,4.75
2023-05-01T19:27:03.484Z,5.63
2023-05-01T19:29:33.412Z,5.82
2023-05-01T19:32:19.085Z,4.95
2023-05-01T19:34:45.923Z,4.97
2023-05-01T19:37:12.616Z,6.25
2023-05-01T19:39:39.622Z,5.20
2023-05-01T19:42:06.499Z,4.63
2023-05-01T19:44:33.116Z,6.28
2023-05-01T19:46:59.907Z,6.00
2023-05-01T19:49:26.901Z,5.03
2023-05-01T19:51:54.317Z,6.05
2023-05-01T19:54:22.418Z,6.50
2023-05-01T19:56:51.840Z,4.85
2023-05-01T19:59:19.095Z,4.05
2023-05-01T20:01:46.044Z,5.68
2023-05-01T20:04:13.096Z,10.20
2023-05-01T20:06:39.930Z,6.30
2023-05-01T20:09:07.234Z,5.18
2023-05-01T20:11:33.982Z,3.88
2023-05-01T20:14:02.210Z,9.27
2023-05-01T20:16:30.221Z,5.57
2023-05-01T20:18:56.982Z,6.40
2023-05-01T20:21:23.713Z,7.22
2023-05-01T20:23:51.331Z,5.13
2023-05-01T20:26:19.079Z,5.15
2023-05-01T20:28:45.942Z,6.72
2023-05-01T20:31:13.526Z,5.50
2023-05-01T20:33:40.393Z,5.95
2023-05-01T20:36:07.439Z,6.35
2023-05-01T20:38:40.779Z,5.70
2023-05-01T20:41:07.583Z,5.20
2023-05-01T20:43:34.300Z,4.78
2023-05-01T20:46:01.162Z,4.97
2023-05-01T20:48:27.838Z,5.35
2023-05-01T20:50:54.564Z,5.70
2023-05-01T20:53:21.343Z,5.30
2023-05-01T20:55:49.919Z,6.78
2023-05-01T20:58:16.717Z,5.78
2023-05-01T21:00:43.433Z,5.88
2023-05-01T21:03:10.246Z,4.80
2023-05-01T21:05:37.192Z,4.05
2023-05-01T21:08:03.837Z,3.78
2023-05-01T21:10:30.572Z,4.45
2023-05-01T21:12:57.898Z,4.28
2023-05-01T21:15:24.940Z,5.25
2023-05-01T21:17:51.713Z,4.50
2023-05-01T21:20:32.380Z,9.23
2023-05-01T21:23:02.607Z,10.30
2023-05-01T21:25:31.838Z,10.38
2023-05-01T21:28:56.330Z,9.40
2023-05-01T21:31:27.566Z,9.00
2023-05-01T21:33:54.301Z,7.43
2023-05-01T21:36:21.028Z,7.28
2023-05-01T21:38:47.787Z,7.30
2023-05-01T21:41:15.827Z,6.75
2023-05-01T21:43:42.864Z,6.57
2023-05-01T21:46:16.967Z,6.90
2023-05-01T21:48:43.860Z,7.22
2023-05-01T21:51:10.706Z,7.00
2023-05-01T21:53:40.596Z,6.35
2023-05-01T21:56:07.666Z,6.60
2023-05-01T21:58:34.290Z,6.78
2023-05-01T22:01:01.009Z,6.57
2023-05-01T22:03:27.908Z,7.18
2023-05-01T22:05:54.642Z,5.78
2023-05-01T22:08:21.283Z,7.68
2023-05-01T22:10:49.066Z,10.13
2023-05-01T22:13:15.782Z,7.18
2023-05-01T22:15:42.591Z,6.78
2023-05-01T22:18:09.424Z,6.25
2023-05-01T22:20:36.163Z,6.72
2023-05-01T22:23:02.908Z,5.85
2023-05-01T22:25:29.652Z,6.70
2023-05-01T22:27:56.435Z,7.13
2023-05-01T22:30:23.169Z,6.07
2023-05-01T22:32:49.849Z,5.68
2023-05-01T22:35:16.789Z,6.18
2023-05-01T22:37:43.587Z,5.70
2023-05-01T22:40:10.585Z,6.00
2023-05-01T22:42:37.293Z,6.00
2023-05-01T22:45:04.308Z,5.22
2023-05-01T22:47:31.026Z,5.47
2023-05-01T22:49:57.847Z,5.32
2023-05-01T22:52:24.667Z,4.63
2023-05-01T22:54:52.691Z,3.90
2023-05-01T22:57:19.363Z,4.15
2023-05-01T22:59:46.030Z,4.28
2023-05-01T23:02:17.563Z,4.75
2023-05-01T23:04:44.673Z,4.45
2023-05-01T23:07:13.612Z,4.13
2023-05-01T23:09:40.551Z,7.70
2023-05-01T23:12:07.447Z,6.95
2023-05-01T23:14:36.967Z,7.93
2023-05-01T23:17:03.968Z,9.38
2023-05-01T23:19:30.596Z,8.50
2023-05-01T23:22:08.430Z,7.32
2023-05-01T23:24:55.303Z,7.82
2023-05-01T23:27:22.671Z,7.55
2023-05-01T23:29:57.587Z,10.00
2023-05-01T23:32:29.398Z,12.40
2023-05-01T23:35:01.095Z,12.45
2023-05-01T23:37:27.754Z,10.68
2023-05-01T23:39:54.467Z,8.00
2023-05-01T23:42:21.657Z,7.60
2023-05-01T23:44:48.606Z,7.05
2023-05-01T23:47:15.587Z,7.10
2023-05-01T23:49:42.402Z,5.60
2023-05-01T23:52:09.099Z,6.43
2023-05-01T23:54:35.756Z,5.97
2023-05-01T23:57:02.596Z,7.40
2023-05-01T23:59:29.244Z,6.22
